sensor_id;sensor_type;location;lat;lon;timestamp;temperature;humidity
7155;DHT22;3619;53.784;10.440;2023-03-20T00:00:06;8.40;99.90
7155;DHT22;3619;53.784;10.440;2023-03-20T00:02:35;8.40;99.90
7155;DHT22;3619;53.784;10.440;2023-03-20T00:05:19;8.40;99.90
7155;DHT22;3619;53.784;10.440;2023-03-20T00:07:47;8.40;99.90
7155;DHT22;3619;53.784;10.440;2023-03-20T00:10:16;8.40;99.90
7155;DHT22;3619;53.784;10.440;2023-03-20T00:12:44;8.40;99.90
7155;DHT22;3619;53.784;10.440;2023-03-20T00:15:24;8.40;99.90
7155;DHT22;3619;53.784;10.440;2023-03-20T00:17:51;8.40;99.90
7155;DHT22;3619;53.784;10.440;2023-03-20T00:20:20;8.40;99.90
7155;DHT22;3619;53.784;10.440;2023-03-20T00:22:47;8.40;99.90
7155;DHT22;3619;53.784;10.440;2023-03-20T00:25:15;8.40;99.90
7155;DHT22;3619;53.784;10.440;2023-03-20T00:27:43;8.40;99.90
7155;DHT22;3619;53.784;10.440;2023-03-20T00:30:29;8.40;99.90
7155;DHT22;3619;53.784;10.440;2023-03-20T00:32:57;8.40;99.90
7155;DHT22;3619;53.784;10.440;2023-03-20T00:35:27;8.40;99.90
7155;DHT22;3619;53.784;10.440;2023-03-20T00:37:56;8.40;99.90
7155;DHT22;3619;53.784;10.440;2023-03-20T00:40:28;8.40;99.90
7155;DHT22;3619;53.784;10.440;2023-03-20T00:42:59;8.50;99.90
7155;DHT22;3619;53.784;10.440;2023-03-20T00:45:27;8.40;99.90
7155;DHT22;3619;53.784;10.440;2023-03-20T00:47:54;8.40;99.90
7155;DHT22;3619;53.784;10.440;2023-03-20T00:50:23;8.40;99.90
7155;DHT22;3619;53.784;10.440;2023-03-20T00:52:52;8.40;99.90
7155;DHT22;3619;53.784;10.440;2023-03-20T00:55:21;8.40;99.90
7155;DHT22;3619;53.784;10.440;2023-03-20T00:57:51;8.40;99.90
7155;DHT22;3619;53.784;10.440;2023-03-20T01:00:30;8.40;99.90
7155;DHT22;3619;53.784;10.440;2023-03-20T01:03:00;8.40;99.90
7155;DHT22;3619;53.784;10.440;2023-03-20T01:05:27;8.40;99.90
7155;DHT22;3619;53.784;10.440;2023-03-20T01:07:55;8.40;99.90
7155;DHT22;3619;53.784;10.440;2023-03-20T01:10:28;8.40;99.90
7155;DHT22;3619;53.784;10.440;2023-03-20T01:12:57;8.40;99.90
7155;DHT22;3619;53.784;10.440;2023-03-20T01:15:29;8.30;99.90
7155;DHT22;3619;53.784;10.440;2023-03-20T01:17:57;8.30;99.90
7155;DHT22;3619;53.784;10.440;2023-03-20T01:20:26;8.30;99.90
7155;DHT22;3619;53.784;10.440;2023-03-20T01:22:54;8.30;99.90
7155;DHT22;3619;53.784;10.440;2023-03-20T01:25:22;8.40;99.90
7155;DHT22;3619;53.784;10.440;2023-03-20T01:27:50;8.30;99.90
7155;DHT22;3619;53.784;10.440;2023-03-20T01:30:20;8.30;99.90
7155;DHT22;3619;53.784;10.440;2023-03-20T01:32:48;8.30;99.90
7155;DHT22;3619;53.784;10.440;2023-03-20T01:35:17;8.30;99.90
7155;DHT22;3619;53.784;10.440;2023-03-20T01:37:48;8.30;99.90
7155;DHT22;3619;53.784;10.440;2023-03-20T01:40:24;8.30;99.90
7155;DHT22;3619;53.784;10.440;2023-03-20T01:42:52;8.30;99.90
7155;DHT22;3619;53.784;10.440;2023-03-20T01:45:25;8.30;99.90
7155;DHT22;3619;53.784;10.440;2023-03-20T01:47:53;8.30;99.90
7155;DHT22;3619;53.784;10.440;2023-03-20T01:50:28;8.30;99.90
7155;DHT22;3619;53.784;10.440;2023-03-20T01:53:03;8.30;99.90
7155;DHT22;3619;53.784;10.440;2023-03-20T01:55:33;8.30;99.90
7155;DHT22;3619;53.784;10.440;2023-03-20T01:58:03;8.30;99.90
7155;DHT22;3619;53.784;10.440;2023-03-20T02:00:33;8.30;99.90
7155;DHT22;3619;53.784;10.440;2023-03-20T02:03:01;8.30;99.90
7155;DHT22;3619;53.784;10.440;2023-03-20T02:05:30;8.30;99.90
7155;DHT22;3619;53.784;10.440;2023-03-20T02:08:04;8.30;99.90
7155;DHT22;3619;53.784;10.440;2023-03-20T02:10:38;8.40;99.90
7155;DHT22;3619;53.784;10.440;2023-03-20T02:13:05;8.30;99.90
7155;DHT22;3619;53.784;10.440;2023-03-20T02:15:35;8.30;99.90
7155;DHT22;3619;53.784;10.440;2023-03-20T02:18:18;8.30;99.90
7155;DHT22;3619;53.784;10.440;2023-03-20T02:20:53;8.20;99.90
7155;DHT22;3619;53.784;10.440;2023-03-20T02:23:50;8.20;99.90
7155;DHT22;3619;53.784;10.440;2023-03-20T02:26:30;8.20;99.90
7155;DHT22;3619;53.784;10.440;2023-03-20T02:29:33;8.20;99.90
7155;DHT22;3619;53.784;10.440;2023-03-20T02:32:56;8.10;99.90
7155;DHT22;3619;53.784;10.440;2023-03-20T02:41:28;7.90;99.90
7155;DHT22;3619;53.784;10.440;2023-03-20T02:44:00;7.90;99.90
7155;DHT22;3619;53.784;10.440;2023-03-20T02:46:35;7.90;99.90
7155;DHT22;3619;53.784;10.440;2023-03-20T02:49:12;7.90;99.90
7155;DHT22;3619;53.784;10.440;2023-03-20T02:51:47;7.80;99.90
7155;DHT22;3619;53.784;10.440;2023-03-20T02:54:25;7.80;99.90
7155;DHT22;3619;53.784;10.440;2023-03-20T02:56:59;7.70;99.90
7155;DHT22;3619;53.784;10.440;2023-03-20T02:59:31;7.70;99.90
7155;DHT22;3619;53.784;10.440;2023-03-20T03:02:06;7.70;99.90
7155;DHT22;3619;53.784;10.440;2023-03-20T03:04:37;7.60;99.90
7155;DHT22;3619;53.784;10.440;2023-03-20T03:07:06;7.60;99.90
7155;DHT22;3619;53.784;10.440;2023-03-20T03:09:39;7.60;99.90
7155;DHT22;3619;53.784;10.440;2023-03-20T03:12:10;7.60;99.90
7155;DHT22;3619;53.784;10.440;2023-03-20T03:14:41;7.50;99.90
7155;DHT22;3619;53.784;10.440;2023-03-20T03:17:10;7.40;99.90
7155;DHT22;3619;53.784;10.440;2023-03-20T03:19:41;7.40;99.90
7155;DHT22;3619;53.784;10.440;2023-03-20T03:22:12;7.40;99.90
7155;DHT22;3619;53.784;10.440;2023-03-20T03:24:44;7.30;99.90
7155;DHT22;3619;53.784;10.440;2023-03-20T03:27:17;7.30;99.90
7155;DHT22;3619;53.784;10.440;2023-03-20T03:29:49;7.30;99.90
7155;DHT22;3619;53.784;10.440;2023-03-20T03:32:22;7.30;99.90
7155;DHT22;3619;53.784;10.440;2023-03-20T03:34:51;7.30;99.90
7155;DHT22;3619;53.784;10.440;2023-03-20T03:37:23;7.20;99.90
7155;DHT22;3619;53.784;10.440;2023-03-20T03:40:00;7.20;99.90
7155;DHT22;3619;53.784;10.440;2023-03-20T03:42:32;7.10;99.90
7155;DHT22;3619;53.784;10.440;2023-03-20T03:45:03;7.10;99.90
7155;DHT22;3619;53.784;10.440;2023-03-20T03:47:37;7.10;99.90
7155;DHT22;3619;53.784;10.440;2023-03-20T03:50:11;7.00;99.90
7155;DHT22;3619;53.784;10.440;2023-03-20T03:52:41;7.00;99.90
7155;DHT22;3619;53.784;10.440;2023-03-20T03:55:12;7.00;99.90
7155;DHT22;3619;53.784;10.440;2023-03-20T03:57:42;7.00;99.90
7155;DHT22;3619;53.784;10.440;2023-03-20T04:00:13;7.00;99.90
7155;DHT22;3619;53.784;10.440;2023-03-20T04:02:43;6.90;99.90
7155;DHT22;3619;53.784;10.440;2023-03-20T04:05:11;6.90;99.90
7155;DHT22;3619;53.784;10.440;2023-03-20T04:07:39;6.90;99.90
7155;DHT22;3619;53.784;10.440;2023-03-20T04:10:06;6.90;99.90
7155;DHT22;3619;53.784;10.440;2023-03-20T04:12:39;6.90;99.90
7155;DHT22;3619;53.784;10.440;2023-03-20T04:15:07;6.90;99.90
7155;DHT22;3619;53.784;10.440;2023-03-20T04:17:35;6.90;99.90
7155;DHT22;3619;53.784;10.440;2023-03-20T04:20:02;6.90;99.90
7155;DHT22;3619;53.784;10.440;2023-03-20T04:22:29;6.90;99.90
7155;DHT22;3619;53.784;10.440;2023-03-20T04:24:59;6.80;99.90
7155;DHT22;3619;53.784;10.440;2023-03-20T04:27:26;6.80;99.90
7155;DHT22;3619;53.784;10.440;2023-03-20T04:29:54;6.80;99.90
7155;DHT22;3619;53.784;10.440;2023-03-20T04:32:21;6.80;99.90
7155;DHT22;3619;53.784;10.440;2023-03-20T04:34:48;6.80;99.90
7155;DHT22;3619;53.784;10.440;2023-03-20T04:37:16;6.80;99.90
7155;DHT22;3619;53.784;10.440;2023-03-20T04:39:43;6.80;99.90
7155;DHT22;3619;53.784;10.440;2023-03-20T04:42:11;6.80;99.90
7155;DHT22;3619;53.784;10.440;2023-03-20T04:44:37;6.80;99.90
7155;DHT22;3619;53.784;10.440;2023-03-20T04:47:06;6.80;99.90
7155;DHT22;3619;53.784;10.440;2023-03-20T04:49:32;6.80;99.90
7155;DHT22;3619;53.784;10.440;2023-03-20T04:52:02;6.80;99.90
7155;DHT22;3619;53.784;10.440;2023-03-20T04:54:31;6.90;99.90
7155;DHT22;3619;53.784;10.440;2023-03-20T04:56:58;6.80;99.90
7155;DHT22;3619;53.784;10.440;2023-03-20T04:59:24;6.80;99.90
7155;DHT22;3619;53.784;10.440;2023-03-20T05:01:51;6.80;99.90
7155;DHT22;3619;53.784;10.440;2023-03-20T05:04:19;6.80;99.90
7155;DHT22;3619;53.784;10.440;2023-03-20T05:06:46;6.90;99.90
7155;DHT22;3619;53.784;10.440;2023-03-20T05:09:14;6.80;99.90
7155;DHT22;3619;53.784;10.440;2023-03-20T05:11:43;6.80;99.90
7155;DHT22;3619;53.784;10.440;2023-03-20T05:14:10;6.90;99.90
7155;DHT22;3619;53.784;10.440;2023-03-20T05:16:37;6.90;99.90
7155;DHT22;3619;53.784;10.440;2023-03-20T05:19:04;6.80;99.90
7155;DHT22;3619;53.784;10.440;2023-03-20T05:21:32;6.80;99.90
7155;DHT22;3619;53.784;10.440;2023-03-20T05:23:59;6.70;99.90
7155;DHT22;3619;53.784;10.440;2023-03-20T05:26:26;6.70;99.90
7155;DHT22;3619;53.784;10.440;2023-03-20T05:28:53;6.70;99.90
7155;DHT22;3619;53.784;10.440;2023-03-20T05:31:20;6.70;99.90
7155;DHT22;3619;53.784;10.440;2023-03-20T05:33:48;6.80;99.90
7155;DHT22;3619;53.784;10.440;2023-03-20T05:36:14;6.70;99.90
7155;DHT22;3619;53.784;10.440;2023-03-20T05:38:43;6.70;99.90
7155;DHT22;3619;53.784;10.440;2023-03-20T05:41:10;6.60;99.90
7155;DHT22;3619;53.784;10.440;2023-03-20T05:43:36;6.70;99.90
7155;DHT22;3619;53.784;10.440;2023-03-20T05:46:04;6.60;99.90
7155;DHT22;3619;53.784;10.440;2023-03-20T05:48:30;6.60;99.90
7155;DHT22;3619;53.784;10.440;2023-03-20T05:50:57;6.60;99.90
7155;DHT22;3619;53.784;10.440;2023-03-20T05:53:26;6.60;99.90
7155;DHT22;3619;53.784;10.440;2023-03-20T05:55:54;6.60;99.90
7155;DHT22;3619;53.784;10.440;2023-03-20T05:58:21;6.60;99.90
7155;DHT22;3619;53.784;10.440;2023-03-20T06:00:48;6.60;99.90
7155;DHT22;3619;53.784;10.440;2023-03-20T06:03:15;6.50;99.90
7155;DHT22;3619;53.784;10.440;2023-03-20T06:05:46;6.50;99.90
7155;DHT22;3619;53.784;10.440;2023-03-20T06:08:12;6.60;99.90
7155;DHT22;3619;53.784;10.440;2023-03-20T06:10:40;6.50;99.90
7155;DHT22;3619;53.784;10.440;2023-03-20T06:13:08;6.60;99.90
7155;DHT22;3619;53.784;10.440;2023-03-20T06:15:35;6.60;99.90
7155;DHT22;3619;53.784;10.440;2023-03-20T06:18:05;6.60;99.90
7155;DHT22;3619;53.784;10.440;2023-03-20T06:20:33;6.50;99.90
7155;DHT22;3619;53.784;10.440;2023-03-20T06:22:59;6.60;99.90
7155;DHT22;3619;53.784;10.440;2023-03-20T06:25:27;6.60;99.90
7155;DHT22;3619;53.784;10.440;2023-03-20T06:27:56;6.70;99.90
7155;DHT22;3619;53.784;10.440;2023-03-20T06:30:24;6.80;99.90
7155;DHT22;3619;53.784;10.440;2023-03-20T06:32:51;6.70;99.90
7155;DHT22;3619;53.784;10.440;2023-03-20T06:35:18;6.80;99.90
7155;DHT22;3619;53.784;10.440;2023-03-20T06:37:45;6.80;99.90
7155;DHT22;3619;53.784;10.440;2023-03-20T06:40:12;6.80;99.90
7155;DHT22;3619;53.784;10.440;2023-03-20T06:42:45;6.80;99.90
7155;DHT22;3619;53.784;10.440;2023-03-20T06:45:16;6.80;99.90
7155;DHT22;3619;53.784;10.440;2023-03-20T06:47:46;6.80;99.90
7155;DHT22;3619;53.784;10.440;2023-03-20T06:50:13;6.90;99.90
7155;DHT22;3619;53.784;10.440;2023-03-20T06:52:45;6.90;99.90
7155;DHT22;3619;53.784;10.440;2023-03-20T06:55:12;6.90;99.90
7155;DHT22;3619;53.784;10.440;2023-03-20T06:57:39;6.90;99.90
7155;DHT22;3619;53.784;10.440;2023-03-20T07:00:08;6.90;99.90
7155;DHT22;3619;53.784;10.440;2023-03-20T07:02:35;6.90;99.90
7155;DHT22;3619;53.784;10.440;2023-03-20T07:05:07;6.90;99.90
7155;DHT22;3619;53.784;10.440;2023-03-20T07:07:35;7.00;99.90
7155;DHT22;3619;53.784;10.440;2023-03-20T07:10:03;7.00;99.90
7155;DHT22;3619;53.784;10.440;2023-03-20T07:12:30;7.00;99.90
7155;DHT22;3619;53.784;10.440;2023-03-20T07:14:58;7.00;99.90
7155;DHT22;3619;53.784;10.440;2023-03-20T07:17:25;7.00;99.90
7155;DHT22;3619;53.784;10.440;2023-03-20T07:19:54;7.00;99.90
7155;DHT22;3619;53.784;10.440;2023-03-20T07:22:25;7.00;99.90
7155;DHT22;3619;53.784;10.440;2023-03-20T07:24:59;7.00;99.90
7155;DHT22;3619;53.784;10.440;2023-03-20T07:27:26;7.00;99.90
7155;DHT22;3619;53.784;10.440;2023-03-20T07:29:55;7.00;99.90
7155;DHT22;3619;53.784;10.440;2023-03-20T07:32:21;7.00;99.90
7155;DHT22;3619;53.784;10.440;2023-03-20T07:34:48;7.00;99.90
7155;DHT22;3619;53.784;10.440;2023-03-20T07:37:15;7.00;99.90
7155;DHT22;3619;53.784;10.440;2023-03-20T07:39:43;7.00;99.90
7155;DHT22;3619;53.784;10.440;2023-03-20T07:42:10;7.10;99.90
7155;DHT22;3619;53.784;10.440;2023-03-20T07:44:38;7.10;99.90
7155;DHT22;3619;53.784;10.440;2023-03-20T07:47:05;7.10;99.90
7155;DHT22;3619;53.784;10.440;2023-03-20T07:49:35;7.20;99.90
7155;DHT22;3619;53.784;10.440;2023-03-20T07:52:01;7.20;99.90
7155;DHT22;3619;53.784;10.440;2023-03-20T07:54:28;7.30;99.90
7155;DHT22;3619;53.784;10.440;2023-03-20T07:56:56;7.30;99.90
7155;DHT22;3619;53.784;10.440;2023-03-20T07:59:23;7.40;99.90
7155;DHT22;3619;53.784;10.440;2023-03-20T08:01:51;7.40;99.90
7155;DHT22;3619;53.784;10.440;2023-03-20T08:04:18;7.40;99.90
7155;DHT22;3619;53.784;10.440;2023-03-20T08:06:47;7.40;99.90
7155;DHT22;3619;53.784;10.440;2023-03-20T08:09:13;7.50;99.90
7155;DHT22;3619;53.784;10.440;2023-03-20T08:11:40;7.50;99.90
7155;DHT22;3619;53.784;10.440;2023-03-20T08:14:08;7.50;99.90
7155;DHT22;3619;53.784;10.440;2023-03-20T08:16:35;7.50;99.90
7155;DHT22;3619;53.784;10.440;2023-03-20T08:19:02;7.60;99.90
7155;DHT22;3619;53.784;10.440;2023-03-20T08:21:41;7.60;99.90
7155;DHT22;3619;53.784;10.440;2023-03-20T08:24:09;7.60;99.90
7155;DHT22;3619;53.784;10.440;2023-03-20T08:26:36;7.60;99.90
7155;DHT22;3619;53.784;10.440;2023-03-20T08:29:03;7.70;99.90
7155;DHT22;3619;53.784;10.440;2023-03-20T08:31:31;7.70;99.90
7155;DHT22;3619;53.784;10.440;2023-03-20T08:33:58;7.70;99.90
7155;DHT22;3619;53.784;10.440;2023-03-20T08:36:26;7.70;99.90
7155;DHT22;3619;53.784;10.440;2023-03-20T08:38:52;7.70;99.90
7155;DHT22;3619;53.784;10.440;2023-03-20T08:41:23;7.70;99.90
7155;DHT22;3619;53.784;10.440;2023-03-20T08:43:49;7.70;99.90
7155;DHT22;3619;53.784;10.440;2023-03-20T08:46:16;7.80;99.90
7155;DHT22;3619;53.784;10.440;2023-03-20T08:48:44;7.80;99.90
7155;DHT22;3619;53.784;10.440;2023-03-20T08:51:11;7.70;99.90
7155;DHT22;3619;53.784;10.440;2023-03-20T08:53:38;7.80;99.90
7155;DHT22;3619;53.784;10.440;2023-03-20T08:56:08;7.80;99.90
7155;DHT22;3619;53.784;10.440;2023-03-20T08:58:35;7.80;99.90
7155;DHT22;3619;53.784;10.440;2023-03-20T09:01:03;7.80;99.90
7155;DHT22;3619;53.784;10.440;2023-03-20T09:03:32;7.80;99.90
7155;DHT22;3619;53.784;10.440;2023-03-20T09:06:07;7.80;99.90
7155;DHT22;3619;53.784;10.440;2023-03-20T09:08:37;7.80;99.90
7155;DHT22;3619;53.784;10.440;2023-03-20T09:11:05;7.80;99.90
7155;DHT22;3619;53.784;10.440;2023-03-20T09:13:32;7.80;99.90
7155;DHT22;3619;53.784;10.440;2023-03-20T09:15:59;7.70;99.90
7155;DHT22;3619;53.784;10.440;2023-03-20T09:18:26;7.70;99.90
7155;DHT22;3619;53.784;10.440;2023-03-20T09:20:53;7.70;99.90
7155;DHT22;3619;53.784;10.440;2023-03-20T09:23:23;7.80;99.90
7155;DHT22;3619;53.784;10.440;2023-03-20T09:25:49;7.80;99.90
7155;DHT22;3619;53.784;10.440;2023-03-20T09:28:16;7.80;99.90
7155;DHT22;3619;53.784;10.440;2023-03-20T09:30:45;7.70;99.90
7155;DHT22;3619;53.784;10.440;2023-03-20T09:33:14;7.70;99.90
7155;DHT22;3619;53.784;10.440;2023-03-20T09:35:48;7.80;99.90
7155;DHT22;3619;53.784;10.440;2023-03-20T09:38:17;7.80;99.90
7155;DHT22;3619;53.784;10.440;2023-03-20T09:40:51;7.80;99.90
7155;DHT22;3619;53.784;10.440;2023-03-20T09:43:40;7.80;99.90
7155;DHT22;3619;53.784;10.440;2023-03-20T09:46:20;7.90;99.90
7155;DHT22;3619;53.784;10.440;2023-03-20T09:49:03;7.90;99.90
7155;DHT22;3619;53.784;10.440;2023-03-20T09:51:36;7.90;99.90
7155;DHT22;3619;53.784;10.440;2023-03-20T09:54:08;7.90;99.90
7155;DHT22;3619;53.784;10.440;2023-03-20T09:56:37;7.90;99.90
7155;DHT22;3619;53.784;10.440;2023-03-20T09:59:05;7.90;99.90
7155;DHT22;3619;53.784;10.440;2023-03-20T10:01:48;7.90;99.90
7155;DHT22;3619;53.784;10.440;2023-03-20T10:04:16;8.10;99.90
7155;DHT22;3619;53.784;10.440;2023-03-20T10:06:43;8.20;99.90
7155;DHT22;3619;53.784;10.440;2023-03-20T10:09:14;8.10;99.90
7155;DHT22;3619;53.784;10.440;2023-03-20T10:12:05;8.10;99.90
7155;DHT22;3619;53.784;10.440;2023-03-20T10:14:41;8.30;99.90
7155;DHT22;3619;53.784;10.440;2023-03-20T10:17:23;8.30;99.90
7155;DHT22;3619;53.784;10.440;2023-03-20T10:20:00;8.50;99.90
7155;DHT22;3619;53.784;10.440;2023-03-20T10:22:33;8.60;99.90
7155;DHT22;3619;53.784;10.440;2023-03-20T10:25:06;8.60;99.90
7155;DHT22;3619;53.784;10.440;2023-03-20T10:27:41;8.60;99.90
7155;DHT22;3619;53.784;10.440;2023-03-20T10:33:32;8.60;99.90
7155;DHT22;3619;53.784;10.440;2023-03-20T10:36:16;8.60;99.90
7155;DHT22;3619;53.784;10.440;2023-03-20T10:38:50;8.60;99.90
7155;DHT22;3619;53.784;10.440;2023-03-20T10:41:21;8.60;99.90
7155;DHT22;3619;53.784;10.440;2023-03-20T10:43:52;8.60;99.90
7155;DHT22;3619;53.784;10.440;2023-03-20T10:46:22;8.70;99.90
7155;DHT22;3619;53.784;10.440;2023-03-20T10:48:57;8.80;99.90
7155;DHT22;3619;53.784;10.440;2023-03-20T10:51:36;8.90;99.90
7155;DHT22;3619;53.784;10.440;2023-03-20T10:54:14;9.00;99.90
7155;DHT22;3619;53.784;10.440;2023-03-20T10:56:50;9.10;99.90
7155;DHT22;3619;53.784;10.440;2023-03-20T10:59:28;9.00;99.90
7155;DHT22;3619;53.784;10.440;2023-03-20T11:01:59;8.90;99.90
7155;DHT22;3619;53.784;10.440;2023-03-20T11:04:25;8.90;99.90
7155;DHT22;3619;53.784;10.440;2023-03-20T11:06:59;8.80;99.90
7155;DHT22;3619;53.784;10.440;2023-03-20T11:09:29;9.00;99.90
7155;DHT22;3619;53.784;10.440;2023-03-20T11:11:58;8.90;99.90
7155;DHT22;3619;53.784;10.440;2023-03-20T11:14:32;8.80;99.90
7155;DHT22;3619;53.784;10.440;2023-03-20T11:17:01;8.80;99.90
7155;DHT22;3619;53.784;10.440;2023-03-20T11:19:32;8.80;99.90
7155;DHT22;3619;53.784;10.440;2023-03-20T11:22:07;8.90;99.90
7155;DHT22;3619;53.784;10.440;2023-03-20T11:24:36;8.80;99.90
7155;DHT22;3619;53.784;10.440;2023-03-20T11:27:08;8.90;99.90
7155;DHT22;3619;53.784;10.440;2023-03-20T11:29:38;9.10;99.90
7155;DHT22;3619;53.784;10.440;2023-03-20T11:32:15;9.20;99.90
7155;DHT22;3619;53.784;10.440;2023-03-20T11:34:45;9.10;99.90
7155;DHT22;3619;53.784;10.440;2023-03-20T11:37:21;9.20;99.90
7155;DHT22;3619;53.784;10.440;2023-03-20T11:39:56;9.20;99.90
7155;DHT22;3619;53.784;10.440;2023-03-20T11:42:25;9.30;99.90
7155;DHT22;3619;53.784;10.440;2023-03-20T11:44:58;9.30;99.90
7155;DHT22;3619;53.784;10.440;2023-03-20T11:47:31;9.20;99.90
7155;DHT22;3619;53.784;10.440;2023-03-20T11:50:00;9.20;99.90
7155;DHT22;3619;53.784;10.440;2023-03-20T11:52:30;9.10;99.90
7155;DHT22;3619;53.784;10.440;2023-03-20T11:55:04;9.10;99.90
7155;DHT22;3619;53.784;10.440;2023-03-20T11:57:34;9.00;99.90
7155;DHT22;3619;53.784;10.440;2023-03-20T12:00:17;9.10;99.90
7155;DHT22;3619;53.784;10.440;2023-03-20T12:02:45;9.00;99.90
7155;DHT22;3619;53.784;10.440;2023-03-20T12:05:28;9.10;99.90
7155;DHT22;3619;53.784;10.440;2023-03-20T12:08:01;9.10;99.90
7155;DHT22;3619;53.784;10.440;2023-03-20T12:10:33;9.00;99.90
7155;DHT22;3619;53.784;10.440;2023-03-20T12:13:04;8.90;99.90
7155;DHT22;3619;53.784;10.440;2023-03-20T12:15:41;8.90;99.90
7155;DHT22;3619;53.784;10.440;2023-03-20T12:18:13;8.90;99.90
7155;DHT22;3619;53.784;10.440;2023-03-20T12:20:44;8.80;99.90
7155;DHT22;3619;53.784;10.440;2023-03-20T12:23:23;8.80;99.90
7155;DHT22;3619;53.784;10.440;2023-03-20T12:25:56;8.90;99.90
7155;DHT22;3619;53.784;10.440;2023-03-20T12:28:31;8.90;99.90
7155;DHT22;3619;53.784;10.440;2023-03-20T12:31:23;9.00;99.90
7155;DHT22;3619;53.784;10.440;2023-03-20T12:33:53;9.20;99.90
7155;DHT22;3619;53.784;10.440;2023-03-20T12:36:28;9.30;99.90
7155;DHT22;3619;53.784;10.440;2023-03-20T12:39:03;9.30;99.90
7155;DHT22;3619;53.784;10.440;2023-03-20T12:41:38;9.30;99.90
7155;DHT22;3619;53.784;10.440;2023-03-20T12:44:29;9.30;99.90
7155;DHT22;3619;53.784;10.440;2023-03-20T12:47:14;9.30;99.90
7155;DHT22;3619;53.784;10.440;2023-03-20T12:49:49;9.30;99.90
7155;DHT22;3619;53.784;10.440;2023-03-20T12:52:25;9.30;99.90
7155;DHT22;3619;53.784;10.440;2023-03-20T12:55:09;9.30;99.90
7155;DHT22;3619;53.784;10.440;2023-03-20T12:57:49;9.40;99.90
7155;DHT22;3619;53.784;10.440;2023-03-20T13:00:23;9.50;99.90
7155;DHT22;3619;53.784;10.440;2023-03-20T13:03:04;9.50;99.90
7155;DHT22;3619;53.784;10.440;2023-03-20T13:06:07;9.50;99.90
7155;DHT22;3619;53.784;10.440;2023-03-20T13:09:03;9.70;99.90
7155;DHT22;3619;53.784;10.440;2023-03-20T13:11:38;9.80;99.90
7155;DHT22;3619;53.784;10.440;2023-03-20T13:14:13;9.70;99.90
7155;DHT22;3619;53.784;10.440;2023-03-20T13:16:55;9.80;99.90
7155;DHT22;3619;53.784;10.440;2023-03-20T13:19:33;9.80;99.90
7155;DHT22;3619;53.784;10.440;2023-03-20T13:22:06;9.80;99.90
7155;DHT22;3619;53.784;10.440;2023-03-20T13:24:40;9.90;99.90
7155;DHT22;3619;53.784;10.440;2023-03-20T13:27:16;10.00;99.90
7155;DHT22;3619;53.784;10.440;2023-03-20T13:29:50;10.00;99.90
7155;DHT22;3619;53.784;10.440;2023-03-20T13:32:29;10.10;99.90
7155;DHT22;3619;53.784;10.440;2023-03-20T13:35:20;10.20;99.90
7155;DHT22;3619;53.784;10.440;2023-03-20T13:37:54;10.20;99.90
7155;DHT22;3619;53.784;10.440;2023-03-20T13:40:24;10.20;99.90
7155;DHT22;3619;53.784;10.440;2023-03-20T13:42:55;10.10;99.90
7155;DHT22;3619;53.784;10.440;2023-03-20T13:45:27;10.00;99.90
7155;DHT22;3619;53.784;10.440;2023-03-20T13:48:06;10.00;99.90
7155;DHT22;3619;53.784;10.440;2023-03-20T13:50:44;10.00;99.90
7155;DHT22;3619;53.784;10.440;2023-03-20T13:53:23;9.90;99.90
7155;DHT22;3619;53.784;10.440;2023-03-20T13:56:02;9.80;99.90
7155;DHT22;3619;53.784;10.440;2023-03-20T13:58:47;9.80;99.90
7155;DHT22;3619;53.784;10.440;2023-03-20T14:01:22;9.70;99.90
7155;DHT22;3619;53.784;10.440;2023-03-20T14:03:53;9.70;99.90
7155;DHT22;3619;53.784;10.440;2023-03-20T14:06:44;9.70;99.90
7155;DHT22;3619;53.784;10.440;2023-03-20T14:09:31;9.70;99.90
7155;DHT22;3619;53.784;10.440;2023-03-20T14:12:03;9.60;99.90
7155;DHT22;3619;53.784;10.440;2023-03-20T14:14:31;9.60;99.90
7155;DHT22;3619;53.784;10.440;2023-03-20T14:17:01;9.70;99.90
7155;DHT22;3619;53.784;10.440;2023-03-20T14:19:28;9.70;99.90
7155;DHT22;3619;53.784;10.440;2023-03-20T14:22:01;9.70;99.90
7155;DHT22;3619;53.784;10.440;2023-03-20T14:24:29;9.70;99.90
7155;DHT22;3619;53.784;10.440;2023-03-20T14:27:02;9.70;99.90
7155;DHT22;3619;53.784;10.440;2023-03-20T14:29:35;9.70;99.90
7155;DHT22;3619;53.784;10.440;2023-03-20T14:32:30;9.70;99.90
7155;DHT22;3619;53.784;10.440;2023-03-20T14:35:19;9.70;99.90
7155;DHT22;3619;53.784;10.440;2023-03-20T14:38:08;9.60;99.90
7155;DHT22;3619;53.784;10.440;2023-03-20T14:40:42;9.60;99.90
7155;DHT22;3619;53.784;10.440;2023-03-20T14:43:18;9.50;99.90
7155;DHT22;3619;53.784;10.440;2023-03-20T14:45:52;9.50;99.90
7155;DHT22;3619;53.784;10.440;2023-03-20T14:48:27;9.40;99.90
7155;DHT22;3619;53.784;10.440;2023-03-20T14:51:17;9.20;99.90
7155;DHT22;3619;53.784;10.440;2023-03-20T14:54:23;9.10;99.90
7155;DHT22;3619;53.784;10.440;2023-03-20T14:56:54;9.10;99.90
7155;DHT22;3619;53.784;10.440;2023-03-20T14:59:22;9.20;99.90
7155;DHT22;3619;53.784;10.440;2023-03-20T15:01:58;9.20;99.90
7155;DHT22;3619;53.784;10.440;2023-03-20T15:04:30;9.10;99.90
7155;DHT22;3619;53.784;10.440;2023-03-20T15:07:00;9.10;99.90
7155;DHT22;3619;53.784;10.440;2023-03-20T15:09:30;9.10;99.90
7155;DHT22;3619;53.784;10.440;2023-03-20T15:11:59;9.10;99.90
7155;DHT22;3619;53.784;10.440;2023-03-20T15:14:32;9.10;99.90
7155;DHT22;3619;53.784;10.440;2023-03-20T15:17:01;9.10;99.90
7155;DHT22;3619;53.784;10.440;2023-03-20T15:19:30;9.10;99.90
7155;DHT22;3619;53.784;10.440;2023-03-20T15:22:14;9.10;99.90
7155;DHT22;3619;53.784;10.440;2023-03-20T15:24:50;9.20;99.90
7155;DHT22;3619;53.784;10.440;2023-03-20T15:27:17;9.10;99.90
7155;DHT22;3619;53.784;10.440;2023-03-20T15:29:50;9.20;99.90
7155;DHT22;3619;53.784;10.440;2023-03-20T15:32:17;9.10;99.90
7155;DHT22;3619;53.784;10.440;2023-03-20T15:34:46;9.10;99.90
7155;DHT22;3619;53.784;10.440;2023-03-20T15:37:15;9.00;99.90
7155;DHT22;3619;53.784;10.440;2023-03-20T15:39:45;9.00;99.90
7155;DHT22;3619;53.784;10.440;2023-03-20T15:42:13;9.00;99.90
7155;DHT22;3619;53.784;10.440;2023-03-20T15:44:42;8.90;99.90
7155;DHT22;3619;53.784;10.440;2023-03-20T15:47:13;9.00;99.90
7155;DHT22;3619;53.784;10.440;2023-03-20T15:49:49;9.00;99.90
7155;DHT22;3619;53.784;10.440;2023-03-20T15:52:23;8.90;99.90
7155;DHT22;3619;53.784;10.440;2023-03-20T15:54:53;8.90;99.90
7155;DHT22;3619;53.784;10.440;2023-03-20T15:57:25;8.80;99.90
7155;DHT22;3619;53.784;10.440;2023-03-20T16:00:04;8.80;99.90
7155;DHT22;3619;53.784;10.440;2023-03-20T16:02:31;8.80;99.90
7155;DHT22;3619;53.784;10.440;2023-03-20T16:05:00;8.80;99.90
7155;DHT22;3619;53.784;10.440;2023-03-20T16:07:30;8.80;99.90
7155;DHT22;3619;53.784;10.440;2023-03-20T16:09:59;8.80;99.90
7155;DHT22;3619;53.784;10.440;2023-03-20T16:12:27;8.90;99.90
7155;DHT22;3619;53.784;10.440;2023-03-20T16:14:54;8.90;99.90
7155;DHT22;3619;53.784;10.440;2023-03-20T16:17:24;8.80;99.90
7155;DHT22;3619;53.784;10.440;2023-03-20T16:19:52;8.80;99.90
7155;DHT22;3619;53.784;10.440;2023-03-20T16:22:22;8.80;99.90
7155;DHT22;3619;53.784;10.440;2023-03-20T16:24:50;8.80;99.90
7155;DHT22;3619;53.784;10.440;2023-03-20T16:27:24;8.80;99.90
7155;DHT22;3619;53.784;10.440;2023-03-20T16:29:54;8.70;99.90
7155;DHT22;3619;53.784;10.440;2023-03-20T16:32:31;8.70;99.90
7155;DHT22;3619;53.784;10.440;2023-03-20T16:35:02;8.60;99.90
7155;DHT22;3619;53.784;10.440;2023-03-20T16:37:36;8.60;99.90
7155;DHT22;3619;53.784;10.440;2023-03-20T16:40:13;8.60;99.90